createdAt,value
2017-10-01T00:00:05.935Z,71.40
2017-10-01T00:02:33.570Z,71.50
2017-10-01T00:05:01.951Z,71.40
2017-10-01T00:07:30.357Z,71.40
2017-10-01T00:09:57.967Z,71.30
2017-10-01T00:12:25.617Z,71.30
2017-10-01T00:14:53.231Z,71.40
2017-10-01T00:17:20.880Z,71.40
2017-10-01T00:19:48.594Z,71.40
2017-10-01T00:22:16.205Z,71.40
2017-10-01T00:24:44.637Z,71.50
2017-10-01T00:27:12.254Z,71.50
2017-10-01T00:29:40.626Z,71.60
2017-10-01T00:32:09.065Z,71.50
2017-10-01T00:34:36.678Z,71.40
2017-10-01T00:37:04.324Z,71.60
2017-10-01T00:39:32.711Z,71.40
2017-10-01T00:42:01.240Z,71.30
2017-10-01T00:44:28.858Z,71.20
2017-10-01T00:46:56.501Z,71.30
2017-10-01T00:49:24.878Z,71.40
2017-10-01T00:51:53.430Z,71.60
2017-10-01T00:54:21.039Z,71.50
2017-10-01T00:56:49.452Z,71.40
2017-10-01T00:59:17.127Z,71.30
2017-10-01T01:01:44.755Z,71.40
2017-10-01T01:04:12.403Z,71.40
2017-10-01T01:06:40.786Z,71.40
2017-10-01T01:09:09.223Z,71.40
2017-10-01T01:11:43.647Z,71.20
2017-10-01T01:14:11.496Z,71.40
2017-10-01T01:16:39.101Z,71.50
2017-10-01T01:19:07.486Z,71.40
2017-10-01T01:21:35.996Z,71.40
2017-10-01T01:24:03.612Z,71.30
2017-10-01T01:26:31.254Z,71.50
2017-10-01T01:28:58.903Z,71.60
2017-10-01T01:31:26.555Z,71.60
2017-10-01T01:33:54.170Z,71.40
2017-10-01T01:36:21.787Z,71.40
2017-10-01T01:38:49.429Z,71.60
2017-10-01T01:41:17.131Z,71.60
2017-10-01T01:43:44.769Z,71.40
2017-10-01T01:46:12.385Z,71.30
2017-10-01T01:48:40.820Z,71.50
2017-10-01T01:51:08.477Z,71.50
2017-10-01T01:53:36.255Z,71.60
2017-10-01T01:56:03.899Z,71.40
2017-10-01T01:58:31.517Z,71.40
2017-10-01T02:00:59.903Z,71.60
2017-10-01T02:03:28.315Z,71.30
2017-10-01T02:05:55.926Z,71.30
2017-10-01T02:08:23.664Z,71.20
2017-10-01T02:10:51.291Z,71.30
2017-10-01T02:13:18.947Z,71.40
2017-10-01T02:15:46.564Z,71.30
2017-10-01T02:18:14.200Z,71.40
2017-10-01T02:20:41.862Z,71.10
2017-10-01T02:23:09.483Z,71.30
2017-10-01T02:25:38.043Z,71.30
2017-10-01T02:28:06.435Z,71.30
2017-10-01T02:30:34.814Z,71.40
2017-10-01T02:33:03.209Z,71.40
2017-10-01T02:35:30.824Z,71.40
2017-10-01T02:37:58.481Z,71.30
2017-10-01T02:40:26.109Z,71.40
2017-10-01T02:42:53.775Z,71.30
2017-10-01T02:45:21.397Z,71.40
2017-10-01T02:47:49.783Z,71.20
2017-10-01T02:50:18.206Z,71.40
2017-10-01T02:52:45.820Z,71.40
2017-10-01T02:55:14.238Z,71.50
2017-10-01T02:57:41.848Z,71.50
2017-10-01T03:00:09.494Z,71.40
2017-10-01T03:02:37.168Z,71.30
2017-10-01T03:05:04.805Z,71.20
2017-10-01T03:07:32.429Z,71.50
2017-10-01T03:10:00.088Z,71.40
2017-10-01T03:12:28.506Z,71.60
2017-10-01T03:14:56.162Z,71.50
2017-10-01T03:17:23.814Z,71.30
2017-10-01T03:19:51.471Z,71.40
2017-10-01T03:22:19.077Z,71.40
2017-10-01T03:24:46.693Z,71.20
2017-10-01T03:27:14.337Z,71.40
2017-10-01T03:29:42.716Z,71.20
2017-10-01T03:32:11.135Z,71.30
2017-10-01T03:34:38.747Z,71.20
2017-10-01T03:37:07.192Z,71.50
2017-10-01T03:39:34.826Z,71.30
2017-10-01T03:42:02.429Z,71.50
2017-10-01T03:44:30.078Z,71.60
2017-10-01T03:46:57.724Z,71.40
2017-10-01T03:49:25.344Z,71.40
2017-10-01T03:51:53.759Z,71.40
2017-10-01T03:54:21.377Z,71.30
2017-10-01T03:56:49.821Z,71.50
2017-10-01T03:59:17.431Z,71.50
2017-10-01T04:01:45.042Z,71.30
2017-10-01T04:04:12.690Z,71.40
2017-10-01T04:06:40.305Z,71.70
2017-10-01T04:09:08.732Z,71.40
2017-10-01T04:11:36.354Z,71.30
2017-10-01T04:14:04.759Z,71.70
2017-10-01T04:16:32.402Z,71.70
2017-10-01T04:19:00.217Z,71.70
2017-10-01T04:21:27.870Z,71.70
2017-10-01T04:23:55.491Z,72.00
2017-10-01T04:26:23.206Z,71.70
2017-10-01T04:28:50.855Z,72.00
2017-10-01T04:31:18.466Z,72.00
2017-10-01T04:33:46.853Z,71.90
2017-10-01T04:36:14.519Z,71.90
2017-10-01T04:38:42.153Z,72.00
2017-10-01T04:41:09.819Z,71.90
2017-10-01T04:43:38.215Z,72.00
2017-10-01T04:46:06.614Z,71.90
2017-10-01T04:48:34.265Z,71.90
2017-10-01T04:51:01.978Z,72.00
2017-10-01T04:53:29.598Z,71.90
2017-10-01T04:55:57.258Z,71.90
2017-10-01T04:58:24.881Z,72.00
2017-10-01T05:00:53.259Z,71.70
2017-10-01T05:03:20.901Z,71.60
2017-10-01T05:05:48.522Z,71.70
2017-10-01T05:08:16.152Z,72.10
2017-10-01T05:10:44.576Z,72.10
2017-10-01T05:13:12.190Z,71.90
2017-10-01T05:15:39.804Z,71.90
2017-10-01T05:18:07.594Z,72.10
2017-10-01T05:20:35.231Z,72.20
2017-10-01T05:23:02.847Z,72.10
2017-10-01T05:25:31.265Z,72.10
2017-10-01T05:27:58.895Z,72.10
2017-10-01T05:30:27.345Z,72.00
2017-10-01T05:32:54.983Z,71.90
2017-10-01T05:35:22.602Z,71.90
2017-10-01T05:37:51.033Z,72.10
2017-10-01T05:40:18.654Z,71.90
2017-10-01T05:42:46.270Z,72.20
2017-10-01T05:45:14.118Z,72.30
2017-10-01T05:47:41.750Z,72.30
2017-10-01T05:50:09.367Z,72.20
2017-10-01T05:52:37.015Z,72.10
2017-10-01T05:55:04.637Z,72.00
2017-10-01T05:57:32.266Z,72.00
2017-10-01T06:00:00.682Z,72.20
2017-10-01T06:02:28.290Z,72.10
2017-10-01T06:04:55.908Z,72.20
2017-10-01T06:07:23.567Z,72.20
2017-10-01T06:09:51.188Z,72.20
2017-10-01T06:12:18.818Z,72.20
2017-10-01T06:14:46.479Z,72.60
2017-10-01T06:17:14.084Z,72.30
2017-10-01T06:19:42.467Z,72.30
2017-10-01T06:22:13.254Z,72.10
2017-10-01T06:24:41.793Z,72.40
2017-10-01T06:27:10.230Z,72.40
2017-10-01T06:29:37.899Z,72.30
2017-10-01T06:32:05.642Z,72.10
2017-10-01T06:34:33.259Z,72.10
2017-10-01T06:37:01.687Z,72.30
2017-10-01T06:39:29.310Z,72.30
2017-10-01T06:41:57.103Z,72.50
2017-10-01T06:44:24.876Z,72.90
2017-10-01T06:46:52.523Z,72.60
2017-10-01T06:49:20.202Z,72.60
2017-10-01T06:51:47.879Z,72.70
2017-10-01T06:54:15.520Z,72.70
2017-10-01T06:56:43.131Z,72.60
2017-10-01T06:59:12.681Z,72.70
2017-10-01T07:01:40.515Z,72.80
2017-10-01T07:04:08.913Z,73.60
2017-10-01T07:06:42.706Z,72.80
2017-10-01T07:09:11.463Z,73.20
2017-10-01T07:11:39.198Z,73.10
2017-10-01T07:14:07.059Z,73.40
2017-10-01T07:16:34.702Z,73.50
2017-10-01T07:19:02.795Z,73.60
2017-10-01T07:21:30.522Z,73.60
2017-10-01T07:23:58.920Z,73.40
2017-10-01T07:26:26.573Z,73.40
2017-10-01T07:28:54.185Z,73.60
2017-10-01T07:31:21.827Z,73.80
2017-10-01T07:33:49.498Z,73.70
2017-10-01T07:36:17.127Z,73.70
2017-10-01T07:38:44.743Z,73.70
2017-10-01T07:41:12.447Z,73.60
2017-10-01T07:43:40.077Z,73.70
2017-10-01T07:46:07.710Z,73.80
2017-10-01T07:48:35.377Z,74.00
2017-10-01T07:51:03.009Z,74.10
2017-10-01T07:53:30.645Z,73.70
2017-10-01T07:55:58.323Z,73.70
2017-10-01T07:58:25.947Z,74.00
2017-10-01T08:00:53.576Z,74.10
2017-10-01T08:03:21.237Z,74.10
2017-10-01T08:05:48.859Z,74.40
2017-10-01T08:08:16.491Z,74.40
2017-10-01T08:10:44.195Z,74.30
2017-10-01T08:13:11.822Z,73.80
2017-10-01T08:15:40.206Z,74.40
2017-10-01T08:18:08.620Z,73.90
2017-10-01T08:20:36.242Z,73.80
2017-10-01T08:23:03.907Z,74.30
2017-10-01T08:25:32.282Z,74.20
2017-10-01T08:27:59.942Z,74.10
2017-10-01T08:30:27.556Z,74.10
2017-10-01T08:32:55.194Z,74.60
2017-10-01T08:35:22.845Z,74.30
2017-10-01T08:37:51.222Z,73.70
2017-10-01T08:40:19.594Z,73.80
2017-10-01T08:42:48.019Z,73.70
2017-10-01T08:45:15.632Z,73.70
2017-10-01T08:47:43.260Z,73.50
2017-10-01T08:50:10.939Z,73.80
2017-10-01T08:52:38.556Z,73.10
2017-10-01T08:55:06.162Z,73.40
2017-10-01T08:57:33.806Z,72.90
2017-10-01T09:00:01.407Z,73.00
2017-10-01T09:02:29.811Z,73.60
2017-10-01T09:04:57.427Z,72.80
2017-10-01T09:07:25.049Z,72.60
2017-10-01T09:09:52.700Z,72.40
2017-10-01T09:12:20.324Z,72.80
2017-10-01T09:14:48.757Z,72.40
2017-10-01T09:17:16.382Z,72.40
2017-10-01T09:19:44.763Z,72.50
2017-10-01T09:22:13.172Z,72.20
2017-10-01T09:24:40.867Z,72.10
2017-10-01T09:27:08.525Z,72.00
2017-10-01T09:29:36.227Z,71.50
2017-10-01T09:32:04.630Z,71.50
2017-10-01T09:34:32.278Z,71.30
2017-10-01T09:37:00.660Z,71.70
2017-10-01T09:39:28.343Z,71.70
2017-10-01T09:41:55.982Z,71.70
2017-10-01T09:44:24.360Z,70.40
2017-10-01T09:46:52.778Z,70.80
2017-10-01T09:49:20.406Z,70.80
2017-10-01T09:51:48.131Z,70.30
2017-10-01T09:54:15.815Z,70.40
2017-10-01T09:56:44.200Z,68.90
2017-10-01T09:59:12.577Z,69.10
2017-10-01T10:01:40.991Z,69.20
2017-10-01T10:04:08.607Z,69.00
2017-10-01T10:06:36.987Z,69.10
2017-10-01T10:09:06.799Z,69.30
2017-10-01T10:11:34.454Z,69.30
2017-10-01T10:14:02.098Z,69.40
2017-10-01T10:16:30.475Z,69.50
2017-10-01T10:18:58.090Z,69.10
2017-10-01T10:21:25.734Z,68.70
2017-10-01T10:23:54.114Z,67.90
2017-10-01T10:26:22.483Z,67.60
2017-10-01T10:28:50.130Z,67.40
2017-10-01T10:31:17.763Z,68.40
2017-10-01T10:33:45.424Z,67.10
2017-10-01T10:36:13.031Z,67.80
2017-10-01T10:38:41.422Z,66.90
2017-10-01T10:41:09.846Z,66.70
2017-10-01T10:43:37.450Z,66.70
2017-10-01T10:46:05.830Z,66.50
2017-10-01T10:48:34.287Z,66.70
2017-10-01T10:51:01.917Z,66.50
2017-10-01T10:53:29.574Z,66.80
2017-10-01T10:55:57.191Z,66.10
2017-10-01T10:58:24.815Z,67.00
2017-10-01T11:00:52.478Z,66.90
2017-10-01T11:03:20.093Z,65.20
2017-10-01T11:05:48.519Z,66.00
2017-10-01T11:08:16.119Z,65.90
2017-10-01T11:10:43.750Z,65.40
2017-10-01T11:13:11.406Z,65.80
2017-10-01T11:15:39.008Z,66.70
2017-10-01T11:18:06.734Z,64.60
2017-10-01T11:20:34.398Z,64.80
2017-10-01T11:23:02.262Z,63.30
2017-10-01T11:25:29.871Z,64.70
2017-10-01T11:27:58.295Z,64.90
2017-10-01T11:30:25.905Z,64.80
2017-10-01T11:32:54.301Z,64.50
2017-10-01T11:35:21.947Z,64.40
2017-10-01T11:37:50.338Z,63.90
2017-10-01T11:40:18.759Z,63.20
2017-10-01T11:42:46.425Z,63.10
2017-10-01T11:45:14.054Z,62.80
2017-10-01T11:47:41.702Z,63.00
2017-10-01T11:50:10.095Z,62.20
2017-10-01T11:52:37.754Z,62.00
2017-10-01T11:55:06.388Z,62.20
2017-10-01T11:57:34.022Z,62.20
2017-10-01T12:00:01.662Z,63.40
2017-10-01T12:02:29.284Z,62.90
2017-10-01T12:04:56.927Z,62.00
2017-10-01T12:07:24.596Z,62.80
2017-10-01T12:09:52.230Z,63.40
2017-10-01T12:12:19.839Z,62.20
2017-10-01T12:14:47.511Z,62.20
2017-10-01T12:17:15.906Z,62.10
2017-10-01T12:19:43.551Z,61.90
2017-10-01T12:22:11.211Z,61.50
2017-10-01T12:24:38.824Z,59.60
2017-10-01T12:27:06.441Z,58.60
2017-10-01T12:29:34.865Z,59.00
2017-10-01T12:32:02.491Z,58.90
2017-10-01T12:34:30.957Z,61.60
2017-10-01T12:36:58.563Z,61.50
2017-10-01T12:39:26.241Z,61.40
2017-10-01T12:41:53.904Z,59.70
2017-10-01T12:44:21.508Z,60.50
2017-10-01T12:46:49.127Z,60.10
2017-10-01T12:49:16.806Z,59.80
2017-10-01T12:51:44.418Z,60.70
2017-10-01T12:54:12.843Z,59.40
2017-10-01T12:56:40.458Z,59.30
2017-10-01T12:59:08.838Z,59.50
2017-10-01T13:01:42.135Z,59.40
2017-10-01T13:04:09.847Z,60.20
2017-10-01T13:06:37.661Z,59.90
2017-10-01T13:09:05.329Z,59.70
2017-10-01T13:11:33.056Z,60.90
2017-10-01T13:14:00.811Z,59.20
2017-10-01T13:16:28.566Z,59.60
2017-10-01T13:18:56.259Z,59.80
2017-10-01T13:21:24.718Z,60.50
2017-10-01T13:23:52.448Z,60.30
2017-10-01T13:26:20.130Z,59.20
2017-10-01T13:28:47.851Z,58.70
2017-10-01T13:31:16.394Z,59.80
2017-10-01T13:33:44.173Z,59.70
2017-10-01T13:36:11.929Z,59.90
2017-10-01T13:38:39.624Z,60.10
2017-10-01T13:41:08.196Z,60.10
2017-10-01T13:43:37.062Z,59.60
2017-10-01T13:46:05.029Z,59.50
2017-10-01T13:48:32.792Z,59.00
2017-10-01T13:51:00.609Z,60.20
2017-10-01T13:53:28.331Z,60.20
2017-10-01T13:55:55.988Z,60.70
2017-10-01T13:58:23.661Z,60.20
2017-10-01T14:00:51.429Z,59.30
2017-10-01T14:03:19.152Z,58.90
2017-10-01T14:05:46.859Z,58.70
2017-10-01T14:08:15.329Z,59.30
2017-10-01T14:10:43.041Z,59.20
2017-10-01T14:13:10.832Z,58.80
2017-10-01T14:15:38.526Z,59.60
2017-10-01T14:18:06.176Z,59.90
2017-10-01T14:20:33.934Z,59.40
2017-10-01T14:23:01.650Z,60.10
2017-10-01T14:25:29.397Z,59.00
2017-10-01T14:27:57.852Z,59.20
2017-10-01T14:30:31.222Z,59.20
2017-10-01T14:32:58.917Z,58.30
2017-10-01T14:35:26.619Z,58.70
2017-10-01T14:37:54.437Z,58.80
2017-10-01T14:40:22.133Z,58.50
2017-10-01T14:42:50.546Z,59.30
2017-10-01T14:45:19.109Z,59.20
2017-10-01T14:47:46.834Z,58.60
2017-10-01T14:50:14.544Z,58.30
2017-10-01T14:55:23.479Z,57.60
2017-10-01T14:57:51.165Z,58.30
2017-10-01T15:00:18.862Z,58.70
2017-10-01T15:02:46.576Z,58.80
2017-10-01T15:05:14.259Z,59.30
2017-10-01T15:07:41.976Z,58.90
2017-10-01T15:10:11.793Z,58.30
2017-10-01T15:12:39.516Z,58.60
2017-10-01T15:15:07.414Z,58.80
2017-10-01T15:17:35.316Z,58.60
2017-10-01T15:20:04.791Z,58.30
2017-10-01T15:22:34.492Z,59.00
2017-10-01T15:25:03.060Z,59.00
2017-10-01T15:27:30.775Z,58.90
2017-10-01T15:29:58.564Z,58.80
2017-10-01T15:32:26.272Z,58.50
2017-10-01T15:34:53.933Z,59.00
2017-10-01T15:37:21.748Z,59.10
2017-10-01T15:39:49.434Z,59.00
2017-10-01T15:42:17.861Z,59.10
2017-10-01T15:44:48.556Z,58.90
2017-10-01T15:47:16.565Z,58.90
2017-10-01T15:49:44.938Z,58.70
2017-10-01T15:52:13.361Z,58.60
2017-10-01T15:54:40.968Z,58.60
2017-10-01T15:57:08.643Z,59.20
2017-10-01T15:59:37.021Z,59.40
2017-10-01T16:02:05.389Z,58.80
2017-10-01T16:04:33.027Z,58.80
2017-10-01T16:07:00.650Z,59.00
2017-10-01T16:09:28.310Z,58.90
2017-10-01T16:11:55.943Z,59.20
2017-10-01T16:14:24.329Z,59.50
2017-10-01T16:16:52.754Z,59.20
2017-10-01T16:19:20.375Z,59.10
2017-10-01T16:21:48.757Z,59.80
2017-10-01T16:24:16.432Z,59.80
2017-10-01T16:26:44.043Z,60.00
2017-10-01T16:29:11.688Z,59.60
2017-10-01T16:31:39.301Z,59.60
2017-10-01T16:34:07.685Z,59.80
2017-10-01T16:36:35.342Z,59.70
2017-10-01T16:39:03.723Z,60.00
2017-10-01T16:41:32.147Z,60.00
2017-10-01T16:44:00.532Z,60.10
2017-10-01T16:46:28.153Z,60.00
2017-10-01T16:48:56.105Z,60.40
2017-10-01T16:51:24.677Z,59.70
2017-10-01T16:53:52.531Z,59.70
2017-10-01T16:56:20.484Z,61.00
2017-10-01T16:58:48.099Z,60.50
2017-10-01T17:01:15.710Z,60.70
2017-10-01T17:03:43.361Z,60.40
2017-10-01T17:06:10.979Z,60.30
2017-10-01T17:08:39.368Z,60.60
2017-10-01T17:11:07.007Z,60.60
2017-10-01T17:13:35.393Z,60.70
2017-10-01T17:16:03.817Z,60.70
2017-10-01T17:18:31.428Z,60.70
2017-10-01T17:20:59.818Z,61.10
2017-10-01T17:23:28.593Z,61.10
2017-10-01T17:25:56.974Z,61.10
2017-10-01T17:28:25.396Z,60.80
2017-10-01T17:30:53.054Z,60.70
2017-10-01T17:33:20.672Z,60.70
2017-10-01T17:35:48.322Z,61.00
2017-10-01T17:38:15.955Z,60.70
2017-10-01T17:40:43.597Z,61.00
2017-10-01T17:43:11.287Z,61.30
2017-10-01T17:45:38.952Z,60.90
2017-10-01T17:48:06.560Z,60.80
2017-10-01T17:50:34.977Z,60.80
2017-10-01T17:53:02.591Z,60.80
2017-10-01T17:55:31.059Z,61.00
2017-10-01T17:57:59.610Z,61.20
2017-10-01T18:00:27.362Z,61.00
2017-10-01T18:02:55.022Z,61.30
2017-10-01T18:05:22.670Z,61.30
2017-10-01T18:07:50.306Z,61.30
2017-10-01T18:10:18.758Z,61.40
2017-10-01T18:12:46.405Z,61.40
2017-10-01T18:15:14.193Z,61.40
2017-10-01T18:17:41.805Z,61.40
2017-10-01T18:20:09.414Z,61.70
2017-10-01T18:22:37.059Z,61.70
2017-10-01T18:25:05.018Z,61.60
2017-10-01T18:27:32.627Z,62.00
2017-10-01T18:30:01.194Z,61.90
2017-10-01T18:32:29.583Z,61.90
2017-10-01T18:34:57.214Z,62.00
2017-10-01T18:37:24.884Z,62.20
2017-10-01T18:39:52.498Z,62.00
2017-10-01T18:42:20.144Z,62.30
2017-10-01T18:44:48.536Z,62.40
2017-10-01T18:47:16.154Z,62.30
2017-10-01T18:49:43.794Z,62.10
2017-10-01T18:52:11.415Z,62.30
2017-10-01T18:54:39.082Z,62.30
2017-10-01T18:57:06.773Z,62.60
2017-10-01T18:59:34.553Z,62.40
2017-10-01T19:02:02.962Z,62.80
2017-10-01T19:04:30.584Z,62.70
2017-10-01T19:06:58.248Z,63.10
2017-10-01T19:09:25.876Z,63.10
2017-10-01T19:11:53.488Z,63.00
2017-10-01T19:14:21.125Z,63.30
2017-10-01T19:16:48.780Z,63.30
2017-10-01T19:19:16.412Z,63.10
2017-10-01T19:21:44.839Z,63.30
2017-10-01T19:24:12.471Z,63.30
2017-10-01T19:26:40.632Z,63.50
2017-10-01T19:29:09.059Z,63.30
2017-10-01T19:31:36.676Z,63.20
2017-10-01T19:34:05.064Z,63.60
2017-10-01T19:36:32.718Z,63.50
2017-10-01T19:39:01.105Z,63.80
2017-10-01T19:41:28.754Z,63.80
2017-10-01T19:43:57.131Z,64.20
2017-10-01T19:46:25.509Z,63.60
2017-10-01T19:48:53.919Z,63.70
2017-10-01T19:51:21.539Z,63.70
2017-10-01T19:53:49.922Z,64.60
2017-10-01T19:56:18.333Z,63.90
2017-10-01T19:58:47.274Z,63.80
2017-10-01T20:01:14.956Z,63.60
2017-10-01T20:03:43.378Z,64.00
2017-10-01T20:06:11.020Z,63.80
2017-10-01T20:08:38.661Z,63.70
2017-10-01T20:11:07.071Z,64.20
2017-10-01T20:13:34.699Z,64.10
2017-10-01T20:16:03.118Z,64.40
2017-10-01T20:18:30.735Z,64.40
2017-10-01T20:20:58.388Z,64.70
2017-10-01T20:23:26.005Z,64.50
2017-10-01T20:25:53.630Z,64.00
2017-10-01T20:28:22.040Z,64.50
2017-10-01T20:30:49.675Z,64.40
2017-10-01T20:33:18.803Z,64.50
2017-10-01T20:35:46.437Z,64.50
2017-10-01T20:38:14.860Z,64.70
2017-10-01T20:40:42.504Z,64.50
2017-10-01T20:43:10.196Z,64.70
2017-10-01T20:45:37.857Z,64.80
2017-10-01T20:48:05.488Z,64.60
2017-10-01T20:50:33.117Z,64.60
2017-10-01T20:53:00.766Z,64.50
2017-10-01T20:55:28.656Z,64.70
2017-10-01T20:57:56.347Z,64.80
2017-10-01T21:00:23.966Z,64.80
2017-10-01T21:02:51.731Z,65.00
2017-10-01T21:05:19.456Z,65.40
2017-10-01T21:07:47.064Z,65.00
2017-10-01T21:10:15.443Z,64.90
2017-10-01T21:12:43.869Z,65.10
2017-10-01T21:15:11.517Z,65.00
2017-10-01T21:17:39.148Z,65.30
2017-10-01T21:20:07.556Z,65.30
2017-10-01T21:22:35.878Z,65.10
2017-10-01T21:25:03.540Z,65.50
2017-10-01T21:27:31.189Z,65.40
2017-10-01T21:29:58.812Z,65.40
2017-10-01T21:32:26.450Z,65.50
2017-10-01T21:34:54.065Z,65.10
2017-10-01T21:37:21.868Z,65.00
2017-10-01T21:39:49.490Z,65.50
2017-10-01T21:42:17.099Z,65.50
2017-10-01T21:44:45.551Z,65.80
2017-10-01T21:47:13.323Z,65.60
2017-10-01T21:49:40.944Z,65.60
2017-10-01T21:52:08.588Z,65.70
2017-10-01T21:54:36.209Z,65.50
2017-10-01T21:57:03.897Z,65.70
2017-10-01T21:59:32.306Z,65.60
2017-10-01T22:01:59.924Z,65.50
2017-10-01T22:04:28.600Z,65.80
2017-10-01T22:06:56.214Z,65.70
2017-10-01T22:09:23.826Z,65.70
2017-10-01T22:11:52.389Z,65.60
2017-10-01T22:14:19.998Z,65.50
2017-10-01T22:16:48.411Z,66.00
2017-10-01T22:19:16.029Z,66.00
2017-10-01T22:21:44.406Z,65.50
2017-10-01T22:24:12.040Z,65.50
2017-10-01T22:26:39.652Z,66.70
2017-10-01T22:29:07.314Z,66.10
2017-10-01T22:31:34.925Z,65.90
2017-10-01T22:34:02.537Z,65.90
2017-10-01T22:36:30.186Z,65.80
2017-10-01T22:38:58.570Z,66.10
2017-10-01T22:41:26.997Z,66.20
2017-10-01T22:43:54.606Z,66.20
2017-10-01T22:46:22.335Z,66.20
2017-10-01T22:48:49.994Z,66.20
2017-10-01T22:51:17.654Z,66.10
2017-10-01T22:53:45.260Z,66.10
2017-10-01T22:56:13.901Z,66.00
2017-10-01T22:58:41.499Z,65.80
2017-10-01T23:01:09.884Z,66.40
2017-10-01T23:03:37.547Z,66.20
2017-10-01T23:06:05.172Z,66.00
2017-10-01T23:08:32.833Z,66.10
2017-10-01T23:11:00.483Z,66.40
2017-10-01T23:13:28.114Z,66.30
2017-10-01T23:15:55.774Z,66.20
2017-10-01T23:18:23.469Z,66.10
2017-10-01T23:20:51.095Z,65.90
2017-10-01T23:23:18.738Z,66.10
2017-10-01T23:25:47.125Z,66.30
2017-10-01T23:28:15.560Z,66.30
2017-10-01T23:30:43.179Z,66.30
2017-10-01T23:33:10.796Z,67.00
2017-10-01T23:35:38.451Z,66.30
2017-10-01T23:38:06.075Z,66.20
2017-10-01T23:40:33.689Z,66.40
2017-10-01T23:43:01.334Z,66.40
2017-10-01T23:45:28.956Z,66.40
2017-10-01T23:47:56.869Z,66.50
2017-10-01T23:50:24.490Z,66.40
2017-10-01T23:52:52.108Z,66.20
2017-10-01T23:55:19.751Z,66.30
2017-10-01T23:57:47.380Z,66.40
